createdAt,value
2023-05-19T00:00:59.226Z,7.58
2023-05-19T00:03:27.239Z,7.57
2023-05-19T00:05:54.163Z,7.51
2023-05-19T00:08:23.921Z,7.48
2023-05-19T00:10:50.709Z,7.46
2023-05-19T00:13:17.455Z,7.41
2023-05-19T00:15:44.295Z,7.41
2023-05-19T00:18:14.041Z,7.40
2023-05-19T00:20:41.427Z,7.36
2023-05-19T00:23:08.135Z,7.39
2023-05-19T00:25:34.740Z,7.31
2023-05-19T00:28:02.478Z,7.29
2023-05-19T00:30:32.572Z,7.27
2023-05-19T00:32:59.263Z,7.22
2023-05-19T00:35:26.005Z,7.19
2023-05-19T00:37:52.674Z,7.18
2023-05-19T00:40:19.424Z,7.14
2023-05-19T00:42:45.978Z,7.14
2023-05-19T00:45:12.553Z,7.10
2023-05-19T00:47:39.517Z,7.04
2023-05-19T00:50:06.387Z,7.07
2023-05-19T00:52:32.986Z,7.01
2023-05-19T00:54:59.609Z,7.01
2023-05-19T00:57:27.103Z,6.96
2023-05-19T00:59:54.088Z,6.96
2023-05-19T01:02:21.548Z,6.94
2023-05-19T01:04:48.929Z,6.91
2023-05-19T01:07:16.483Z,6.89
2023-05-19T01:09:43.135Z,6.84
2023-05-19T01:12:09.755Z,6.81
2023-05-19T01:14:36.308Z,6.76
2023-05-19T01:17:21.300Z,6.78
2023-05-19T01:20:02.196Z,6.74
2023-05-19T01:22:58.944Z,6.72
2023-05-19T01:25:59.483Z,6.73
2023-05-19T01:28:47.870Z,6.70
2023-05-19T01:31:16.758Z,6.65
2023-05-19T01:33:44.002Z,6.62
2023-05-19T01:36:12.343Z,6.59
2023-05-19T01:38:39.618Z,6.55
2023-05-19T01:41:06.996Z,6.56
2023-05-19T01:43:35.868Z,6.55
2023-05-19T01:46:03.627Z,6.47
2023-05-19T01:48:30.582Z,6.46
2023-05-19T01:50:57.372Z,6.44
2023-05-19T01:53:24.775Z,6.39
2023-05-19T01:55:53.891Z,6.37
2023-05-19T01:58:37.874Z,6.37
2023-05-19T02:01:24.992Z,6.33
2023-05-19T02:04:19.789Z,6.32
2023-05-19T02:07:03.531Z,6.28
2023-05-19T02:09:42.188Z,6.25
2023-05-19T02:12:40.134Z,6.23
2023-05-19T02:15:16.910Z,6.23
2023-05-19T02:17:48.393Z,6.16
2023-05-19T02:20:16.468Z,6.13
2023-05-19T02:22:43.262Z,6.08
2023-05-19T02:25:10.916Z,6.05
2023-05-19T02:27:38.906Z,6.02
2023-05-19T02:30:06.780Z,5.99
2023-05-19T02:32:33.414Z,5.95
2023-05-19T02:35:00.096Z,5.92
2023-05-19T02:37:28.713Z,5.92
2023-05-19T02:39:55.311Z,5.93
2023-05-19T02:42:21.962Z,5.90
2023-05-19T02:44:48.783Z,5.91
2023-05-19T02:47:15.661Z,5.87
2023-05-19T02:49:43.024Z,5.84
2023-05-19T02:52:09.608Z,5.85
2023-05-19T02:54:36.265Z,5.87
2023-05-19T02:57:02.804Z,5.84
2023-05-19T02:59:29.334Z,5.79
2023-05-19T03:01:59.041Z,5.77
2023-05-19T03:04:25.622Z,5.75
2023-05-19T03:06:52.426Z,5.76
2023-05-19T03:09:18.907Z,5.73
2023-05-19T03:11:45.537Z,5.67
2023-05-19T03:14:14.012Z,5.69
2023-05-19T03:16:42.245Z,5.68
2023-05-19T03:19:09.641Z,5.63
2023-05-19T03:21:36.692Z,5.62
2023-05-19T03:24:03.474Z,5.58
2023-05-19T03:26:29.986Z,5.54
2023-05-19T03:28:56.505Z,5.49
2023-05-19T03:31:23.033Z,5.47
2023-05-19T03:33:49.551Z,5.48
2023-05-19T03:36:16.101Z,5.49
2023-05-19T03:38:42.594Z,5.44
2023-05-19T03:41:09.154Z,5.42
2023-05-19T03:43:35.659Z,5.40
2023-05-19T03:46:02.468Z,5.41
2023-05-19T03:48:29.043Z,5.44
2023-05-19T03:50:55.675Z,5.45
2023-05-19T03:53:22.333Z,5.46
2023-05-19T03:55:49.744Z,5.45
2023-05-19T03:58:16.533Z,5.40
2023-05-19T04:00:42.999Z,5.41
2023-05-19T04:03:09.779Z,5.44
2023-05-19T04:05:36.388Z,5.43
2023-05-19T04:08:02.970Z,5.41
2023-05-19T04:10:29.624Z,5.41
2023-05-19T04:12:56.938Z,5.42
2023-05-19T04:15:23.524Z,5.47
2023-05-19T04:17:50.095Z,5.46
2023-05-19T04:20:16.735Z,5.51
2023-05-19T04:22:43.231Z,5.52
2023-05-19T04:25:09.987Z,5.51
2023-05-19T04:27:39.295Z,5.56
2023-05-19T04:30:06.484Z,5.60
2023-05-19T04:32:33.206Z,5.64
2023-05-19T04:34:59.949Z,5.64
2023-05-19T04:37:26.712Z,5.70
2023-05-19T04:39:54.240Z,5.74
2023-05-19T04:42:21.098Z,5.77
2023-05-19T04:44:49.339Z,5.78
2023-05-19T04:47:16.202Z,5.78
2023-05-19T04:49:43.022Z,5.77
2023-05-19T04:52:11.797Z,5.85
2023-05-19T04:54:39.385Z,5.89
2023-05-19T04:57:06.607Z,5.94
2023-05-19T04:59:33.442Z,5.99
2023-05-19T05:02:00.179Z,6.02
2023-05-19T05:04:26.918Z,6.07
2023-05-19T05:06:53.456Z,6.12
2023-05-19T05:09:20.070Z,6.15
2023-05-19T05:11:46.932Z,6.19
2023-05-19T05:14:13.661Z,6.24
2023-05-19T05:16:40.840Z,6.28
2023-05-19T05:19:07.859Z,6.33
2023-05-19T05:21:34.771Z,6.42
2023-05-19T05:24:01.732Z,6.49
2023-05-19T05:26:31.162Z,6.59
2023-05-19T05:28:57.664Z,6.67
2023-05-19T05:31:24.281Z,6.70
2023-05-19T05:33:50.804Z,6.77
2023-05-19T05:36:17.412Z,6.81
2023-05-19T05:38:43.913Z,6.86
2023-05-19T05:41:10.610Z,6.92
2023-05-19T05:43:37.087Z,6.95
2023-05-19T05:46:03.740Z,6.99
2023-05-19T05:48:30.551Z,7.14
2023-05-19T05:50:57.341Z,7.20
2023-05-19T05:53:26.002Z,7.32
2023-05-19T05:55:53.724Z,7.40
2023-05-19T05:58:21.364Z,7.45
2023-05-19T06:00:49.354Z,7.58
2023-05-19T06:03:16.894Z,7.65
2023-05-19T06:05:43.611Z,7.66
2023-05-19T06:08:10.200Z,7.76
2023-05-19T06:10:38.993Z,7.88
2023-05-19T06:13:05.669Z,8.00
2023-05-19T06:15:32.241Z,8.11
2023-05-19T06:17:59.257Z,8.23
2023-05-19T06:20:26.278Z,8.35
2023-05-19T06:22:52.866Z,8.45
2023-05-19T06:25:20.590Z,8.55
2023-05-19T06:27:47.186Z,8.62
2023-05-19T06:30:13.958Z,8.71
2023-05-19T06:32:40.669Z,8.77
2023-05-19T06:35:07.613Z,8.92
2023-05-19T06:37:34.139Z,9.05
2023-05-19T06:40:00.679Z,9.22
2023-05-19T06:42:27.226Z,9.37
2023-05-19T06:44:53.696Z,9.48
2023-05-19T06:47:20.252Z,9.63
2023-05-19T06:49:50.685Z,9.72
2023-05-19T06:52:17.573Z,9.82
2023-05-19T06:54:44.068Z,9.92
2023-05-19T06:57:10.768Z,10.06
2023-05-19T06:59:37.625Z,10.16
2023-05-19T07:02:04.792Z,10.32
2023-05-19T07:04:31.430Z,10.48
2023-05-19T07:06:58.658Z,10.55
2023-05-19T07:09:25.307Z,10.67
2023-05-19T07:11:51.820Z,10.91
2023-05-19T07:14:18.323Z,11.05
2023-05-19T07:16:45.010Z,11.21
2023-05-19T07:19:11.692Z,11.41
2023-05-19T07:21:38.232Z,11.57
2023-05-19T07:24:04.884Z,11.66
2023-05-19T07:26:31.964Z,11.86
2023-05-19T07:28:58.551Z,11.96
2023-05-19T07:31:25.151Z,12.21
2023-05-19T07:33:54.301Z,12.40
2023-05-19T07:36:21.406Z,12.63
2023-05-19T07:38:48.825Z,12.90
2023-05-19T07:41:15.477Z,14.40
2023-05-19T07:43:42.643Z,16.55
2023-05-19T07:46:09.264Z,17.26
2023-05-19T07:48:35.894Z,17.27
2023-05-19T07:51:02.550Z,17.21
2023-05-19T07:53:29.143Z,16.75
2023-05-19T07:55:58.362Z,17.71
2023-05-19T07:58:25.379Z,18.71
2023-05-19T08:00:53.238Z,19.70
2023-05-19T08:03:20.800Z,20.07
2023-05-19T08:05:47.658Z,19.77
2023-05-19T08:08:17.037Z,20.01
2023-05-19T08:10:43.860Z,21.76
2023-05-19T08:13:10.481Z,22.13
2023-05-19T08:15:37.692Z,23.28
2023-05-19T08:18:05.469Z,23.68
2023-05-19T08:20:32.762Z,24.03
2023-05-19T08:22:59.896Z,23.80
2023-05-19T08:25:26.658Z,24.09
2023-05-19T08:27:53.267Z,24.23
2023-05-19T08:30:19.887Z,24.29
2023-05-19T08:32:47.112Z,24.10
2023-05-19T08:35:13.705Z,23.86
2023-05-19T08:37:41.145Z,23.99
2023-05-19T08:40:11.858Z,23.49
2023-05-19T08:42:38.436Z,22.68
2023-05-19T08:45:06.934Z,22.05
2023-05-19T08:47:33.882Z,23.14
2023-05-19T08:50:07.602Z,23.64
2023-05-19T08:52:53.256Z,23.78
2023-05-19T08:55:41.186Z,23.62
2023-05-19T08:58:08.703Z,22.88
2023-05-19T09:00:36.058Z,23.14
2023-05-19T09:03:18.256Z,23.14
2023-05-19T09:05:50.765Z,23.13
2023-05-19T09:08:18.412Z,23.16
2023-05-19T09:10:44.974Z,23.16
2023-05-19T09:13:11.722Z,22.84
2023-05-19T09:15:39.881Z,21.30
2023-05-19T09:18:08.902Z,20.63
2023-05-19T09:20:46.229Z,20.59
2023-05-19T09:23:17.274Z,21.40
2023-05-19T09:25:47.527Z,22.14
2023-05-19T09:28:14.035Z,22.52
2023-05-19T09:30:40.521Z,22.40
2023-05-19T09:33:10.132Z,21.95
2023-05-19T09:35:37.231Z,21.55
2023-05-19T09:38:04.013Z,21.96
2023-05-19T09:40:32.142Z,22.47
2023-05-19T09:42:58.657Z,22.73
2023-05-19T09:45:27.196Z,23.01
2023-05-19T09:47:53.983Z,23.30
2023-05-19T09:50:20.559Z,22.09
2023-05-19T09:52:48.226Z,22.05
2023-05-19T09:55:15.541Z,21.80
2023-05-19T09:57:42.090Z,21.44
2023-05-19T10:00:17.637Z,20.63
2023-05-19T10:02:46.175Z,19.97
2023-05-19T10:05:22.842Z,20.64
2023-05-19T10:07:51.626Z,21.24
2023-05-19T10:10:22.242Z,21.49
2023-05-19T10:12:49.625Z,21.25
2023-05-19T10:15:19.604Z,21.23
2023-05-19T10:17:50.019Z,20.73
2023-05-19T10:20:17.775Z,20.31
2023-05-19T10:22:46.401Z,20.44
2023-05-19T10:25:15.254Z,20.85
2023-05-19T10:27:56.437Z,21.16
2023-05-19T10:30:36.668Z,21.05
2023-05-19T10:33:07.840Z,21.36
2023-05-19T10:35:40.531Z,21.00
2023-05-19T10:38:44.613Z,21.01
2023-05-19T10:41:23.030Z,20.65
2023-05-19T10:44:11.623Z,21.08
2023-05-19T10:46:40.459Z,20.89
2023-05-19T10:49:09.957Z,21.33
2023-05-19T10:51:37.198Z,21.50
2023-05-19T10:54:10.463Z,20.98
2023-05-19T10:56:42.377Z,20.60
2023-05-19T10:59:32.747Z,20.49
2023-05-19T11:02:06.995Z,20.65
2023-05-19T11:04:53.611Z,20.75
2023-05-19T11:07:22.408Z,20.94
2023-05-19T11:09:51.572Z,20.94
2023-05-19T11:12:24.736Z,21.12
2023-05-19T11:14:55.261Z,21.16
2023-05-19T11:17:23.707Z,21.23
2023-05-19T11:19:55.493Z,21.23
2023-05-19T11:22:27.448Z,21.39
2023-05-19T11:24:57.554Z,21.47
2023-05-19T11:27:31.627Z,21.56
2023-05-19T11:30:08.833Z,21.35
2023-05-19T11:32:39.354Z,21.53
2023-05-19T11:35:07.835Z,21.47
2023-05-19T11:37:34.916Z,21.36
2023-05-19T11:40:02.884Z,21.28
2023-05-19T11:42:29.422Z,21.38
2023-05-19T11:44:56.286Z,21.52
2023-05-19T11:47:23.169Z,21.77
2023-05-19T11:49:52.027Z,21.89
2023-05-19T11:52:22.126Z,22.03
2023-05-19T11:54:49.292Z,22.08
2023-05-19T11:57:15.825Z,22.21
2023-05-19T11:59:45.731Z,21.99
2023-05-19T12:02:24.859Z,21.92
2023-05-19T12:04:52.362Z,21.88
2023-05-19T12:07:22.833Z,21.92
2023-05-19T12:09:50.425Z,21.82
2023-05-19T12:12:19.108Z,21.54
2023-05-19T12:14:52.712Z,21.49
2023-05-19T12:17:21.294Z,21.63
2023-05-19T12:19:49.318Z,21.69
2023-05-19T12:22:19.749Z,21.81
2023-05-19T12:24:47.206Z,21.96
2023-05-19T12:27:23.223Z,21.76
2023-05-19T12:29:54.505Z,21.65
2023-05-19T12:32:25.680Z,21.62
2023-05-19T12:34:53.741Z,21.46
2023-05-19T12:37:20.302Z,21.29
2023-05-19T12:39:48.872Z,21.19
2023-05-19T12:45:36.171Z,21.61
2023-05-19T12:48:11.280Z,22.00
2023-05-19T12:50:38.327Z,22.27
2023-05-19T12:53:09.360Z,22.49
2023-05-19T12:55:45.442Z,22.54
2023-05-19T12:58:15.455Z,22.57
2023-05-19T13:00:45.244Z,22.68
2023-05-19T13:03:20.406Z,22.65
2023-05-19T13:05:49.087Z,22.64
2023-05-19T13:08:17.065Z,22.62
2023-05-19T13:10:45.865Z,22.37
2023-05-19T13:13:13.087Z,22.08
2023-05-19T13:15:42.106Z,21.92
2023-05-19T13:18:10.896Z,22.08
2023-05-19T13:20:38.956Z,22.20
2023-05-19T13:23:05.855Z,22.10
2023-05-19T13:25:34.367Z,21.79
2023-05-19T13:28:05.085Z,21.64
2023-05-19T13:30:33.025Z,21.60
2023-05-19T13:32:59.861Z,21.67
2023-05-19T13:35:26.664Z,21.76
2023-05-19T13:37:53.369Z,21.47
2023-05-19T13:40:20.247Z,21.44
2023-05-19T13:42:47.075Z,21.68
2023-05-19T13:45:13.800Z,21.78
2023-05-19T13:47:40.383Z,21.75
2023-05-19T13:50:07.416Z,21.68
2023-05-19T13:52:34.066Z,21.70
2023-05-19T13:55:00.641Z,21.87
2023-05-19T13:57:27.204Z,21.96
2023-05-19T14:00:02.044Z,21.87
2023-05-19T14:02:30.334Z,21.90
2023-05-19T14:04:57.597Z,21.52
2023-05-19T14:07:24.389Z,21.64
2023-05-19T14:09:52.302Z,21.68
2023-05-19T14:12:19.344Z,21.62
2023-05-19T14:14:48.976Z,21.30
2023-05-19T14:17:15.713Z,20.82
2023-05-19T14:19:42.395Z,21.02
2023-05-19T14:22:08.996Z,21.31
2023-05-19T14:24:35.604Z,21.47
2023-05-19T14:27:02.178Z,21.54
2023-05-19T14:29:31.018Z,21.43
2023-05-19T14:31:57.757Z,21.23
2023-05-19T14:34:24.423Z,21.19
2023-05-19T14:36:51.091Z,21.18
2023-05-19T14:39:17.623Z,21.23
2023-05-19T14:41:44.196Z,21.15
2023-05-19T14:44:11.095Z,21.14
2023-05-19T14:46:37.714Z,21.13
2023-05-19T14:49:06.412Z,21.19
2023-05-19T14:51:33.011Z,21.17
2023-05-19T14:54:00.621Z,21.30
2023-05-19T14:56:27.143Z,21.38
2023-05-19T14:58:53.659Z,21.38
2023-05-19T15:01:20.293Z,21.64
2023-05-19T15:03:46.940Z,21.74
2023-05-19T15:06:13.560Z,21.68
2023-05-19T15:08:41.553Z,21.61
2023-05-19T15:11:08.236Z,21.30
2023-05-19T15:13:34.816Z,21.25
2023-05-19T15:16:16.225Z,21.21
2023-05-19T15:18:44.516Z,21.38
2023-05-19T15:21:11.238Z,21.37
2023-05-19T15:23:37.789Z,21.31
2023-05-19T15:26:04.600Z,21.32
2023-05-19T15:28:31.226Z,21.47
2023-05-19T15:30:57.776Z,21.47
2023-05-19T15:33:24.428Z,21.07
2023-05-19T15:35:52.188Z,21.13
2023-05-19T15:38:19.659Z,21.35
2023-05-19T15:40:46.751Z,21.38
2023-05-19T15:43:13.538Z,21.31
2023-05-19T15:45:40.275Z,21.62
2023-05-19T15:48:06.998Z,21.77
2023-05-19T15:50:34.101Z,21.85
2023-05-19T15:53:00.860Z,22.00
2023-05-19T15:55:27.496Z,22.16
2023-05-19T15:57:54.042Z,22.04
2023-05-19T16:00:20.730Z,22.16
2023-05-19T16:02:47.441Z,21.87
2023-05-19T16:05:14.101Z,21.22
2023-05-19T16:07:42.106Z,20.71
2023-05-19T16:10:09.126Z,20.58
2023-05-19T16:12:36.726Z,20.75
2023-05-19T16:15:03.644Z,20.92
2023-05-19T16:17:30.367Z,20.95
2023-05-19T16:19:57.122Z,21.03
2023-05-19T16:22:24.844Z,21.19
2023-05-19T16:24:52.229Z,21.20
2023-05-19T16:27:19.104Z,21.21
2023-05-19T16:29:45.776Z,21.35
2023-05-19T16:32:12.904Z,21.15
2023-05-19T16:34:39.772Z,21.26
2023-05-19T16:37:06.746Z,21.23
2023-05-19T16:39:36.095Z,21.18
2023-05-19T16:42:03.772Z,20.70
2023-05-19T16:44:30.432Z,20.26
2023-05-19T16:46:57.021Z,20.21
2023-05-19T16:49:23.576Z,20.53
2023-05-19T16:51:50.055Z,21.27
2023-05-19T16:54:16.735Z,22.04
2023-05-19T16:56:43.378Z,22.07
2023-05-19T16:59:10.036Z,21.82
2023-05-19T17:01:36.565Z,21.80
2023-05-19T17:04:03.151Z,21.88
2023-05-19T17:06:29.807Z,21.31
2023-05-19T17:08:56.367Z,20.56
2023-05-19T17:11:23.032Z,20.14
2023-05-19T17:13:49.597Z,19.74
2023-05-19T17:16:16.547Z,19.41
2023-05-19T17:18:43.946Z,19.33
2023-05-19T17:21:10.731Z,19.59
2023-05-19T17:23:37.866Z,19.92
2023-05-19T17:26:04.620Z,20.19
2023-05-19T17:28:31.110Z,20.19
2023-05-19T17:30:57.652Z,20.04
2023-05-19T17:33:24.324Z,19.82
2023-05-19T17:35:51.159Z,19.63
2023-05-19T17:38:17.674Z,19.38
2023-05-19T17:40:44.443Z,19.17
2023-05-19T17:43:11.067Z,18.99
2023-05-19T17:45:37.608Z,18.84
2023-05-19T17:48:04.756Z,18.81
2023-05-19T17:50:31.528Z,18.86
2023-05-19T17:52:58.467Z,18.90
2023-05-19T17:55:29.710Z,18.91
2023-05-19T17:57:56.896Z,18.88
2023-05-19T18:00:25.246Z,18.78
2023-05-19T18:02:52.654Z,18.66
2023-05-19T18:05:19.958Z,18.43
2023-05-19T18:07:46.997Z,18.29
2023-05-19T18:10:15.382Z,18.14
2023-05-19T18:12:41.980Z,17.96
2023-05-19T18:15:08.909Z,17.78
2023-05-19T18:17:35.478Z,17.63
2023-05-19T18:20:02.415Z,17.46
2023-05-19T18:22:28.966Z,17.37
2023-05-19T18:24:56.222Z,17.25
2023-05-19T18:27:22.737Z,17.18
2023-05-19T18:29:49.282Z,17.08
2023-05-19T18:32:17.669Z,16.95
2023-05-19T18:34:44.508Z,16.90
2023-05-19T18:37:10.973Z,16.76
2023-05-19T18:39:45.170Z,16.61
2023-05-19T18:42:11.688Z,16.59
2023-05-19T18:44:38.224Z,16.50
2023-05-19T18:47:04.976Z,16.42
2023-05-19T18:49:31.905Z,16.33
2023-05-19T18:51:58.421Z,16.23
2023-05-19T18:54:24.936Z,16.12
2023-05-19T18:56:51.422Z,16.03
2023-05-19T18:59:18.002Z,15.96
2023-05-19T19:01:45.265Z,15.90
2023-05-19T19:04:12.047Z,15.77
2023-05-19T19:06:38.624Z,15.66
2023-05-19T19:09:05.127Z,15.57
2023-05-19T19:11:31.712Z,15.52
2023-05-19T19:13:58.212Z,15.46
2023-05-19T19:16:25.111Z,15.39
2023-05-19T19:18:51.952Z,15.31
2023-05-19T19:21:19.914Z,15.26
2023-05-19T19:23:46.413Z,15.18
2023-05-19T19:26:13.119Z,15.06
2023-05-19T19:28:39.673Z,15.00
2023-05-19T19:31:06.168Z,14.96
2023-05-19T19:33:32.732Z,14.90
2023-05-19T19:35:59.311Z,14.76
2023-05-19T19:38:25.912Z,14.69
2023-05-19T19:40:52.609Z,14.61
2023-05-19T19:43:19.156Z,14.51
2023-05-19T19:45:45.685Z,14.40
2023-05-19T19:48:12.517Z,14.32
2023-05-19T19:50:39.051Z,14.25
2023-05-19T19:53:05.667Z,14.19
2023-05-19T19:55:32.377Z,14.18
2023-05-19T19:57:58.916Z,14.12
2023-05-19T20:00:25.453Z,14.03
2023-05-19T20:03:04.417Z,13.93
2023-05-19T20:05:32.249Z,13.83
2023-05-19T20:07:58.862Z,13.78
2023-05-19T20:10:25.481Z,13.72
2023-05-19T20:12:52.228Z,13.65
2023-05-19T20:15:19.391Z,13.63
2023-05-19T20:17:46.208Z,13.58
2023-05-19T20:20:13.151Z,13.55
2023-05-19T20:22:39.727Z,13.48
2023-05-19T20:25:06.601Z,13.45
2023-05-19T20:27:33.212Z,13.46
2023-05-19T20:29:59.783Z,13.50
2023-05-19T20:32:26.356Z,13.51
2023-05-19T20:34:52.995Z,13.48
2023-05-19T20:37:20.945Z,13.45
2023-05-19T20:39:47.706Z,13.40
2023-05-19T20:42:14.322Z,13.35
2023-05-19T20:44:40.994Z,13.37
2023-05-19T20:47:08.227Z,13.37
2023-05-19T20:49:35.309Z,13.36
2023-05-19T20:52:02.188Z,13.29
2023-05-19T20:54:28.790Z,13.29
2023-05-19T20:56:55.438Z,13.29
2023-05-19T20:59:22.044Z,13.23
2023-05-19T21:01:48.658Z,13.22
2023-05-19T21:04:15.402Z,13.19
2023-05-19T21:06:42.018Z,13.13
2023-05-19T21:09:08.844Z,13.12
2023-05-19T21:11:35.602Z,13.10
2023-05-19T21:14:04.191Z,13.08
2023-05-19T21:16:31.318Z,13.06
2023-05-19T21:18:58.025Z,13.05
2023-05-19T21:21:24.644Z,12.99
2023-05-19T21:23:51.153Z,12.94
2023-05-19T21:26:17.922Z,12.92
2023-05-19T21:28:44.558Z,12.85
2023-05-19T21:31:11.339Z,12.82
2023-05-19T21:33:37.920Z,12.77
2023-05-19T21:36:04.653Z,12.75
2023-05-19T21:38:31.184Z,12.70
2023-05-19T21:40:57.786Z,12.68
2023-05-19T21:43:24.286Z,12.67
2023-05-19T21:45:50.807Z,12.64
2023-05-19T21:48:17.653Z,12.61
2023-05-19T21:50:44.412Z,12.55
2023-05-19T21:53:10.908Z,12.50
2023-05-19T21:55:37.487Z,12.49
2023-05-19T21:58:03.944Z,12.46
2023-05-19T22:00:30.464Z,12.44
2023-05-19T22:02:57.697Z,12.41
2023-05-19T22:05:24.425Z,12.39
2023-05-19T22:07:50.950Z,12.37
2023-05-19T22:10:17.512Z,12.37
2023-05-19T22:12:44.051Z,12.36
2023-05-19T22:15:11.457Z,12.32
2023-05-19T22:17:38.028Z,12.28
2023-05-19T22:20:05.423Z,12.21
2023-05-19T22:22:31.924Z,12.20
2023-05-19T22:24:58.650Z,12.18
2023-05-19T22:27:25.175Z,12.12
2023-05-19T22:29:51.689Z,12.06
2023-05-19T22:32:19.526Z,12.02
2023-05-19T22:34:46.358Z,11.99
2023-05-19T22:37:13.061Z,11.92
2023-05-19T22:39:39.622Z,11.92
2023-05-19T22:42:06.229Z,11.91
2023-05-19T22:44:32.767Z,11.82
2023-05-19T22:46:59.304Z,11.77
2023-05-19T22:49:27.391Z,11.71
2023-05-19T22:51:53.888Z,11.65
2023-05-19T22:54:20.507Z,11.61
2023-05-19T22:56:48.749Z,11.56
2023-05-19T22:59:17.927Z,11.52
2023-05-19T23:01:46.509Z,11.48
2023-05-19T23:04:13.960Z,11.45
2023-05-19T23:06:40.731Z,11.40
2023-05-19T23:09:07.219Z,11.35
2023-05-19T23:11:34.702Z,11.29
2023-05-19T23:14:01.931Z,11.26
2023-05-19T23:16:28.476Z,11.22
2023-05-19T23:18:55.087Z,11.21
2023-05-19T23:21:21.585Z,11.17
2023-05-19T23:23:48.172Z,11.12
2023-05-19T23:26:14.640Z,11.07
2023-05-19T23:28:44.647Z,11.04
2023-05-19T23:31:11.210Z,10.96
2023-05-19T23:33:37.747Z,10.87
2023-05-19T23:36:09.044Z,10.88
2023-05-19T23:38:36.528Z,10.85
2023-05-19T23:41:03.851Z,10.85
2023-05-19T23:43:32.274Z,10.83
2023-05-19T23:45:59.251Z,10.82
2023-05-19T23:48:27.148Z,10.76
2023-05-19T23:50:53.627Z,10.72
2023-05-19T23:53:20.128Z,10.70
2023-05-19T23:55:47.366Z,10.66
2023-05-19T23:58:14.659Z,10.62
